createdAt,value
2019-05-18T00:01:57.757Z,99518.08
2019-05-18T00:04:27.403Z,99519.72
2019-05-18T00:06:57.214Z,99515.43
2019-05-18T00:09:27.003Z,99514.41
2019-05-18T00:11:56.729Z,99514.45
2019-05-18T00:14:26.366Z,99514.74
2019-05-18T00:16:56.122Z,99517.19
2019-05-18T00:19:25.736Z,99515.59
2019-05-18T00:21:55.484Z,99510.78
2019-05-18T00:24:26.972Z,99508.94
2019-05-18T00:26:56.580Z,99510.82
2019-05-18T00:29:26.246Z,99512.20
2019-05-18T00:31:55.833Z,99507.64
2019-05-18T00:34:25.450Z,99500.66
2019-05-18T00:36:55.065Z,99507.71
2019-05-18T00:39:24.711Z,99506.94
2019-05-18T00:41:54.303Z,99508.28
2019-05-18T00:44:23.943Z,99515.02
2019-05-18T00:46:53.551Z,99506.08
2019-05-18T00:49:23.154Z,99511.19
2019-05-18T00:51:52.764Z,99506.94
2019-05-18T00:54:22.445Z,99517.42
2019-05-18T00:56:52.087Z,99512.04
2019-05-18T00:59:21.721Z,99512.61
2019-05-18T01:01:51.305Z,99506.20
2019-05-18T01:04:20.881Z,99506.45
2019-05-18T01:06:50.475Z,99500.81
2019-05-18T01:09:20.081Z,99497.03
2019-05-18T01:11:49.672Z,99497.59
2019-05-18T01:14:19.278Z,99493.06
2019-05-18T01:16:48.862Z,99484.70
2019-05-18T01:19:18.449Z,99484.14
2019-05-18T01:21:48.034Z,99482.50
2019-05-18T01:24:17.830Z,99483.28
2019-05-18T01:26:47.666Z,99474.92
2019-05-18T01:29:19.921Z,99474.72
2019-05-18T01:31:49.595Z,99479.77
2019-05-18T01:34:19.213Z,99475.77
2019-05-18T01:36:48.823Z,99471.25
2019-05-18T01:39:18.469Z,99474.80
2019-05-18T01:41:48.079Z,99471.28
2019-05-18T01:44:17.673Z,99473.41
2019-05-18T01:46:47.293Z,99473.16
2019-05-18T01:49:16.876Z,99472.06
2019-05-18T01:51:46.472Z,99467.20
2019-05-18T01:54:16.079Z,99473.91
2019-05-18T01:56:45.799Z,99477.13
2019-05-18T01:59:15.435Z,99478.72
2019-05-18T02:01:45.091Z,99478.39
2019-05-18T02:04:14.788Z,99479.73
2019-05-18T02:06:44.422Z,99478.19
2019-05-18T02:09:14.095Z,99477.94
2019-05-18T02:11:43.781Z,99473.97
2019-05-18T02:14:13.408Z,99473.20
2019-05-18T02:16:43.045Z,99467.53
2019-05-18T02:19:12.671Z,99469.16
2019-05-18T02:21:42.288Z,99471.56
2019-05-18T02:24:11.928Z,99468.31
2019-05-18T02:26:41.507Z,99466.47
2019-05-18T02:29:11.125Z,99472.10
2019-05-18T02:31:40.751Z,99468.08
2019-05-18T02:34:10.418Z,99473.78
2019-05-18T02:36:40.120Z,99475.16
2019-05-18T02:39:10.554Z,99472.25
2019-05-18T02:41:40.165Z,99473.06
2019-05-18T02:44:10.108Z,99473.81
2019-05-18T02:46:39.715Z,99477.84
2019-05-18T02:49:09.347Z,99471.19
2019-05-18T02:51:39.099Z,99470.94
2019-05-18T02:54:08.855Z,99469.84
2019-05-18T02:56:38.513Z,99472.25
2019-05-18T02:59:08.120Z,99471.72
2019-05-18T03:01:37.750Z,99469.84
2019-05-18T03:04:08.945Z,99461.81
2019-05-18T03:06:38.591Z,99462.38
2019-05-18T03:09:08.444Z,99460.78
2019-05-18T03:11:38.108Z,99459.48
2019-05-18T03:14:07.792Z,99459.48
2019-05-18T03:16:37.460Z,99459.23
2019-05-18T03:19:08.955Z,99453.59
2019-05-18T03:21:38.511Z,99452.25
2019-05-18T03:24:08.144Z,99454.63
2019-05-18T03:26:37.733Z,99451.69
2019-05-18T03:29:07.406Z,99458.34
2019-05-18T03:31:37.064Z,99458.59
2019-05-18T03:34:06.664Z,99461.25
2019-05-18T03:36:36.399Z,99463.09
2019-05-18T03:39:07.291Z,99467.33
2019-05-18T03:41:36.985Z,99463.22
2019-05-18T03:44:06.589Z,99465.63
2019-05-18T03:46:36.230Z,99469.66
2019-05-18T03:49:05.858Z,99465.91
2019-05-18T03:51:35.516Z,99471.21
2019-05-18T03:54:05.215Z,99468.48
2019-05-18T03:56:34.849Z,99468.69
2019-05-18T03:59:04.621Z,99470.03
2019-05-18T04:01:34.233Z,99467.91
2019-05-18T04:04:03.841Z,99471.62
2019-05-18T04:06:33.424Z,99477.41
2019-05-18T04:09:03.704Z,99477.32
2019-05-18T04:11:33.353Z,99472.43
2019-05-18T04:14:07.663Z,99472.09
2019-05-18T04:16:34.367Z,99467.67
2019-05-18T04:19:05.260Z,99469.66
2019-05-18T04:21:34.871Z,99469.56
2019-05-18T04:24:04.446Z,99468.69
2019-05-18T04:26:34.068Z,99470.47
2019-05-18T04:29:03.765Z,99467.95
2019-05-18T04:31:33.353Z,99469.39
2019-05-18T04:34:03.002Z,99469.75
2019-05-18T04:36:36.140Z,99459.89
2019-05-18T04:39:07.515Z,99459.94
2019-05-18T04:41:37.151Z,99468.09
2019-05-18T04:44:06.997Z,99467.44
2019-05-18T04:46:37.088Z,99461.86
2019-05-18T04:49:06.879Z,99467.31
2019-05-18T04:51:36.648Z,99461.48
2019-05-18T04:54:06.301Z,99463.98
2019-05-18T04:56:35.922Z,99461.60
2019-05-18T04:59:05.712Z,99459.80
2019-05-18T05:01:35.284Z,99460.71
2019-05-18T05:04:04.938Z,99462.63
2019-05-18T05:06:34.597Z,99464.06
2019-05-18T05:09:05.852Z,99461.34
2019-05-18T05:11:35.467Z,99465.50
2019-05-18T05:14:13.943Z,99465.41
2019-05-18T05:16:43.513Z,99471.09
2019-05-18T05:19:13.141Z,99468.00
2019-05-18T05:21:46.476Z,99467.45
2019-05-18T05:24:16.347Z,99464.03
2019-05-18T05:26:46.110Z,99461.50
2019-05-18T05:29:15.742Z,99456.88
2019-05-18T05:31:45.358Z,99464.44
2019-05-18T05:34:14.980Z,99456.56
2019-05-18T05:36:44.687Z,99461.13
2019-05-18T05:39:14.298Z,99457.14
2019-05-18T05:41:43.901Z,99457.23
2019-05-18T05:44:13.679Z,99455.13
2019-05-18T05:46:43.292Z,99452.87
2019-05-18T05:49:22.628Z,99446.14
2019-05-18T05:51:52.237Z,99448.74
2019-05-18T05:54:26.172Z,99455.39
2019-05-18T05:56:55.793Z,99456.69
2019-05-18T05:59:25.426Z,99459.03
2019-05-18T06:01:55.053Z,99456.67
2019-05-18T06:04:24.793Z,99452.31
2019-05-18T06:06:54.482Z,99453.50
2019-05-18T06:09:24.119Z,99454.48
2019-05-18T06:11:53.804Z,99465.06
2019-05-18T06:14:23.873Z,99461.40
2019-05-18T06:16:59.722Z,99465.33
2019-05-18T06:19:30.005Z,99457.43
2019-05-18T06:22:07.001Z,99460.00
2019-05-18T06:24:36.626Z,99454.26
2019-05-18T06:27:06.287Z,99459.85
2019-05-18T06:29:35.943Z,99450.59
2019-05-18T06:32:05.603Z,99453.94
2019-05-18T06:34:35.402Z,99446.66
2019-05-18T06:37:05.050Z,99457.72
2019-05-18T06:39:36.306Z,99454.75
2019-05-18T06:42:05.908Z,99458.72
2019-05-18T06:44:37.377Z,99454.03
2019-05-18T06:47:07.039Z,99450.17
2019-05-18T06:49:36.657Z,99452.63
2019-05-18T06:52:09.681Z,99459.56
2019-05-18T06:54:43.115Z,99456.97
2019-05-18T06:57:17.416Z,99458.31
2019-05-18T06:59:47.214Z,99461.31
2019-05-18T07:02:16.791Z,99463.91
2019-05-18T07:04:46.514Z,99466.62
2019-05-18T07:07:16.135Z,99466.09
2019-05-18T07:09:45.764Z,99471.35
2019-05-18T07:12:15.387Z,99472.44
2019-05-18T07:14:45.021Z,99470.09
2019-05-18T07:17:14.813Z,99468.33
2019-05-18T07:19:44.487Z,99476.09
2019-05-18T07:22:14.362Z,99471.41
2019-05-18T07:24:44.024Z,99471.87
2019-05-18T07:27:13.679Z,99474.14
2019-05-18T07:29:43.273Z,99462.52
2019-05-18T07:32:13.000Z,99470.81
2019-05-18T07:34:42.826Z,99467.99
2019-05-18T07:37:12.446Z,99477.36
2019-05-18T07:39:42.039Z,99467.78
2019-05-18T07:42:11.666Z,99470.86
2019-05-18T07:44:41.291Z,99475.74
2019-05-18T07:47:12.396Z,99474.45
2019-05-18T07:49:45.213Z,99473.95
2019-05-18T07:52:17.250Z,99466.98
2019-05-18T07:54:46.346Z,99469.28
2019-05-18T07:57:15.962Z,99469.92
2019-05-18T07:59:45.598Z,99465.56
2019-05-18T08:02:15.316Z,99465.27
2019-05-18T08:04:44.925Z,99461.47
2019-05-18T08:07:14.547Z,99460.40
2019-05-18T08:09:44.133Z,99466.98
2019-05-18T08:12:13.778Z,99464.20
2019-05-18T08:23:30.881Z,99473.00
2019-05-18T08:26:00.463Z,99476.58
2019-05-18T08:28:30.101Z,99468.62
2019-05-18T08:30:59.721Z,99472.38
2019-05-18T08:33:29.326Z,99475.22
2019-05-18T08:35:58.924Z,99475.19
2019-05-18T08:38:28.636Z,99469.87
2019-05-18T08:40:58.251Z,99469.03
2019-05-18T08:43:28.484Z,99464.74
2019-05-18T08:45:58.278Z,99466.63
2019-05-18T08:48:28.670Z,99472.71
2019-05-18T08:50:58.312Z,99470.00
2019-05-18T08:53:27.927Z,99460.79
2019-05-18T08:55:57.635Z,99468.29
2019-05-18T08:58:27.256Z,99472.55
2019-05-18T09:00:56.865Z,99470.23
2019-05-18T09:03:29.445Z,99473.16
2019-05-18T09:05:59.209Z,99471.91
2019-05-18T09:08:28.913Z,99468.73
2019-05-18T09:11:01.023Z,99468.42
2019-05-18T09:13:30.630Z,99465.98
2019-05-18T09:16:00.694Z,99468.79
2019-05-18T09:18:31.589Z,99468.81
2019-05-18T09:21:02.862Z,99460.41
2019-05-18T09:23:34.299Z,99472.23
2019-05-18T09:26:07.012Z,99471.56
2019-05-18T09:28:38.272Z,99465.16
2019-05-18T09:31:08.025Z,99465.58
2019-05-18T09:33:37.722Z,99470.45
2019-05-18T09:36:07.401Z,99467.81
2019-05-18T09:38:37.139Z,99470.24
2019-05-18T09:41:06.866Z,99473.98
2019-05-18T09:43:38.198Z,99472.14
2019-05-18T09:46:08.037Z,99460.23
2019-05-18T09:48:37.796Z,99464.19
2019-05-18T09:51:07.535Z,99466.63
2019-05-18T09:53:49.461Z,99472.44
2019-05-18T09:56:08.599Z,99467.47
2019-05-18T09:58:38.372Z,99469.81
2019-05-18T10:01:08.016Z,99466.86
2019-05-18T10:03:38.012Z,99464.34
2019-05-18T10:06:07.840Z,99461.42
2019-05-18T10:08:37.454Z,99468.73
2019-05-18T10:11:07.136Z,99471.88
2019-05-18T10:13:36.688Z,99476.08
2019-05-18T10:16:06.320Z,99473.37
2019-05-18T10:18:35.905Z,99471.52
2019-05-18T10:21:05.865Z,99468.97
2019-05-18T10:23:35.481Z,99466.48
2019-05-18T10:26:05.145Z,99462.20
2019-05-18T10:28:34.810Z,99468.61
2019-05-18T10:31:05.106Z,99466.22
2019-05-18T10:33:34.867Z,99466.44
2019-05-18T10:36:04.502Z,99457.69
2019-05-18T10:38:34.116Z,99461.16
2019-05-18T10:41:03.766Z,99468.93
2019-05-18T10:43:33.377Z,99460.44
2019-05-18T10:46:03.096Z,99456.42
2019-05-18T10:48:32.717Z,99455.42
2019-05-18T10:51:05.406Z,99450.05
2019-05-18T10:53:33.663Z,99445.43
2019-05-18T10:56:03.306Z,99444.26
2019-05-18T10:58:32.975Z,99439.94
2019-05-18T11:01:02.657Z,99441.29
2019-05-18T11:03:32.276Z,99434.51
2019-05-18T11:06:01.871Z,99431.58
2019-05-18T11:08:31.496Z,99429.78
2019-05-18T11:11:01.080Z,99426.39
2019-05-18T11:13:30.726Z,99426.39
2019-05-18T11:16:00.316Z,99425.45
2019-05-18T11:18:30.383Z,99425.03
2019-05-18T11:21:00.138Z,99418.08
2019-05-18T11:23:42.831Z,99418.53
2019-05-18T11:26:01.058Z,99416.61
2019-05-18T11:28:30.694Z,99414.55
2019-05-18T11:31:00.382Z,99419.03
2019-05-18T11:33:29.988Z,99415.18
2019-05-18T11:35:59.584Z,99401.45
2019-05-18T11:38:29.270Z,99404.48
2019-05-18T11:40:58.910Z,99408.29
2019-05-18T11:43:28.518Z,99410.58
2019-05-18T11:45:58.186Z,99407.98
2019-05-18T11:48:27.805Z,99403.98
2019-05-18T11:50:57.395Z,99401.63
2019-05-18T11:53:27.003Z,99400.93
2019-05-18T11:55:56.618Z,99397.55
2019-05-18T11:58:26.236Z,99389.80
2019-05-18T12:00:55.859Z,99387.53
2019-05-18T12:03:25.539Z,99388.63
2019-05-18T12:05:56.104Z,99391.42
2019-05-18T12:08:25.716Z,99390.22
2019-05-18T12:10:56.313Z,99376.62
2019-05-18T12:13:26.196Z,99378.48
2019-05-18T12:15:55.784Z,99383.92
2019-05-18T12:18:25.426Z,99375.34
2019-05-18T12:20:55.092Z,99380.58
2019-05-18T12:23:24.702Z,99382.09
2019-05-18T12:25:54.288Z,99381.16
2019-05-18T12:28:23.971Z,99369.06
2019-05-18T12:30:53.611Z,99373.31
2019-05-18T12:33:23.311Z,99369.85
2019-05-18T12:35:53.011Z,99368.12
2019-05-18T12:38:22.605Z,99373.82
2019-05-18T12:40:52.286Z,99363.39
2019-05-18T12:43:21.919Z,99362.16
2019-05-18T12:45:51.656Z,99356.48
2019-05-18T12:48:21.365Z,99368.17
2019-05-18T12:54:51.693Z,99371.27
2019-05-18T12:57:21.299Z,99365.06
2019-05-18T12:59:50.905Z,99365.00
2019-05-18T13:02:20.514Z,99357.58
2019-05-18T13:04:50.458Z,99355.11
2019-05-18T13:07:20.075Z,99356.38
2019-05-18T13:09:50.010Z,99354.29
2019-05-18T13:12:19.613Z,99345.30
2019-05-18T13:14:49.253Z,99339.16
2019-05-18T13:17:21.282Z,99347.02
2019-05-18T13:19:50.259Z,99347.06
2019-05-18T13:22:19.942Z,99339.55
2019-05-18T13:24:52.175Z,99342.63
2019-05-18T13:27:20.979Z,99344.11
2019-05-18T13:29:50.584Z,99340.06
2019-05-18T13:32:20.185Z,99337.09
2019-05-18T13:34:49.831Z,99325.84
2019-05-18T13:37:19.500Z,99322.73
2019-05-18T13:39:49.092Z,99327.98
2019-05-18T13:42:18.714Z,99326.87
2019-05-18T13:44:48.333Z,99314.03
2019-05-18T13:47:17.955Z,99321.34
2019-05-18T13:49:47.580Z,99317.12
2019-05-18T13:52:17.180Z,99324.71
2019-05-18T13:55:01.835Z,99316.19
2019-05-18T13:57:19.268Z,99308.54
2019-05-18T13:59:48.885Z,99302.01
2019-05-18T14:02:18.500Z,99301.49
2019-05-18T14:04:48.090Z,99302.13
2019-05-18T14:07:17.695Z,99301.48
2019-05-18T14:09:47.307Z,99303.97
2019-05-18T14:12:16.899Z,99296.36
2019-05-18T14:14:46.535Z,99299.97
2019-05-18T14:17:16.122Z,99291.29
2019-05-18T14:19:45.742Z,99291.56
2019-05-18T14:22:15.365Z,99305.19
2019-05-18T14:24:44.963Z,99296.50
2019-05-18T14:27:14.563Z,99299.41
2019-05-18T14:29:44.173Z,99303.50
2019-05-18T14:32:13.900Z,99307.72
2019-05-18T14:34:43.507Z,99309.03
2019-05-18T14:37:13.095Z,99304.10
2019-05-18T14:39:42.739Z,99312.74
2019-05-18T14:42:12.348Z,99313.00
2019-05-18T14:44:41.988Z,99309.34
2019-05-18T14:47:11.565Z,99292.80
2019-05-18T14:49:41.278Z,99300.81
2019-05-18T14:52:12.174Z,99300.99
2019-05-18T14:54:42.171Z,99298.73
2019-05-18T14:57:12.063Z,99306.69
2019-05-18T14:59:41.656Z,99306.55
2019-05-18T15:02:11.246Z,99304.80
2019-05-18T15:04:40.836Z,99298.57
2019-05-18T15:07:10.442Z,99295.74
2019-05-18T15:09:40.081Z,99307.50
2019-05-18T15:12:09.665Z,99296.36
2019-05-18T15:14:39.276Z,99296.31
2019-05-18T15:17:08.902Z,99291.16
2019-05-18T15:19:38.583Z,99302.74
2019-05-18T15:22:08.251Z,99298.45
2019-05-18T15:24:37.949Z,99293.75
2019-05-18T15:27:07.604Z,99297.64
2019-05-18T15:29:37.229Z,99295.05
2019-05-18T15:32:06.874Z,99292.59
2019-05-18T15:34:36.549Z,99290.97
2019-05-18T15:37:06.161Z,99293.17
2019-05-18T15:39:35.851Z,99287.88
2019-05-18T15:42:05.663Z,99283.05
2019-05-18T15:44:35.325Z,99282.75
2019-05-18T15:47:05.170Z,99279.27
2019-05-18T15:49:35.078Z,99277.94
2019-05-18T15:52:04.838Z,99273.86
2019-05-18T15:54:36.215Z,99279.35
2019-05-18T15:57:06.009Z,99286.12
2019-05-18T15:59:35.631Z,99283.17
2019-05-18T16:02:06.584Z,99283.42
2019-05-18T16:04:36.478Z,99294.87
2019-05-18T16:07:06.450Z,99290.66
2019-05-18T16:09:36.056Z,99283.34
2019-05-18T16:12:07.093Z,99280.70
2019-05-18T16:14:36.663Z,99283.08
2019-05-18T16:17:07.467Z,99284.66
2019-05-18T16:19:37.164Z,99285.19
2019-05-18T16:22:06.841Z,99282.28
2019-05-18T16:24:36.425Z,99281.12
2019-05-18T16:27:08.844Z,99279.84
2019-05-18T16:29:38.438Z,99277.24
2019-05-18T16:32:08.255Z,99278.16
2019-05-18T16:34:37.827Z,99277.74
2019-05-18T16:37:13.196Z,99280.84
2019-05-18T16:39:42.753Z,99282.55
2019-05-18T16:42:12.365Z,99285.81
2019-05-18T16:44:41.958Z,99283.41
2019-05-18T16:47:11.578Z,99289.09
2019-05-18T16:49:41.198Z,99283.90
2019-05-18T16:52:10.805Z,99285.22
2019-05-18T16:54:40.458Z,99285.30
2019-05-18T16:57:10.003Z,99281.36
2019-05-18T16:59:39.600Z,99280.81
2019-05-18T17:02:09.496Z,99278.52
2019-05-18T17:04:39.088Z,99282.70
2019-05-18T17:07:08.691Z,99286.13
2019-05-18T17:09:38.361Z,99285.45
2019-05-18T17:12:08.040Z,99287.72
2019-05-18T17:14:37.666Z,99281.47
2019-05-18T17:17:07.275Z,99281.53
2019-05-18T17:19:36.867Z,99278.70
2019-05-18T17:22:06.496Z,99282.31
2019-05-18T17:24:36.081Z,99282.02
2019-05-18T17:27:05.702Z,99281.91
2019-05-18T17:29:35.331Z,99278.20
2019-05-18T17:32:05.227Z,99279.69
2019-05-18T17:34:34.860Z,99278.52
2019-05-18T17:37:04.461Z,99278.02
2019-05-18T17:39:34.102Z,99271.36
2019-05-18T17:42:05.107Z,99275.94
2019-05-18T17:44:35.065Z,99273.99
2019-05-18T17:47:04.760Z,99273.24
2019-05-18T17:49:34.350Z,99274.34
2019-05-18T17:52:03.955Z,99275.59
2019-05-18T17:54:33.648Z,99275.33
2019-05-18T17:57:08.341Z,99275.21
2019-05-18T17:59:34.606Z,99270.86
2019-05-18T18:02:04.227Z,99275.25
2019-05-18T18:04:33.839Z,99278.03
2019-05-18T18:07:03.494Z,99277.05
2019-05-18T18:09:33.086Z,99280.80
2019-05-18T18:12:02.708Z,99277.06
2019-05-18T18:14:32.373Z,99283.53
2019-05-18T18:17:02.038Z,99280.92
2019-05-18T18:19:31.698Z,99289.35
2019-05-18T18:22:01.315Z,99284.98
2019-05-18T18:24:30.958Z,99283.46
2019-05-18T18:27:00.572Z,99281.49
2019-05-18T18:29:30.155Z,99285.89
2019-05-18T18:31:59.777Z,99286.80
2019-05-18T18:34:29.384Z,99280.42
2019-05-18T18:37:01.320Z,99285.77
2019-05-18T18:39:30.677Z,99285.36
2019-05-18T18:42:00.330Z,99289.51
2019-05-18T18:44:29.973Z,99289.55
2019-05-18T18:47:21.206Z,99287.23
2019-05-18T18:49:50.757Z,99294.66
2019-05-18T18:52:20.419Z,99294.23
2019-05-18T18:54:50.020Z,99298.85
2019-05-18T18:57:19.638Z,99302.55
2019-05-18T18:59:56.869Z,99298.96
2019-05-18T19:02:26.360Z,99310.12
2019-05-18T19:09:04.785Z,99311.16
2019-05-18T19:11:34.427Z,99305.54
2019-05-18T19:14:05.449Z,99316.59
2019-05-18T19:16:35.073Z,99317.29
2019-05-18T19:19:04.657Z,99323.90
2019-05-18T19:21:34.256Z,99321.64
2019-05-18T19:24:03.884Z,99325.40
2019-05-18T19:26:33.486Z,99333.45
2019-05-18T19:29:03.158Z,99329.36
2019-05-18T19:31:32.775Z,99332.98
2019-05-18T19:34:02.410Z,99332.77
2019-05-18T19:36:32.015Z,99331.86
2019-05-18T19:39:01.658Z,99341.61
2019-05-18T19:41:31.238Z,99340.23
2019-05-18T19:44:00.847Z,99341.36
2019-05-18T19:46:30.453Z,99347.14
2019-05-18T19:49:00.084Z,99345.42
2019-05-18T19:51:29.965Z,99346.09
2019-05-18T19:53:59.679Z,99342.12
2019-05-18T19:56:29.306Z,99349.49
2019-05-18T19:58:58.920Z,99353.56
2019-05-18T20:01:28.529Z,99358.56
2019-05-18T20:03:58.135Z,99356.52
2019-05-18T20:06:27.747Z,99356.38
2019-05-18T20:08:57.386Z,99360.91
2019-05-18T20:11:26.989Z,99358.05
2019-05-18T20:13:56.611Z,99360.50
2019-05-18T20:16:26.732Z,99365.91
2019-05-18T20:18:56.795Z,99356.58
2019-05-18T20:21:27.078Z,99365.94
2019-05-18T20:23:56.728Z,99360.79
2019-05-18T20:26:26.329Z,99361.20
2019-05-18T20:28:56.726Z,99366.82
2019-05-18T20:31:27.969Z,99359.53
2019-05-18T20:33:57.635Z,99363.75
2019-05-18T20:36:27.219Z,99357.83
2019-05-18T20:38:56.828Z,99358.08
2019-05-18T20:41:26.454Z,99364.83
2019-05-18T20:43:56.060Z,99363.67
2019-05-18T20:46:25.680Z,99363.63
2019-05-18T20:48:55.463Z,99358.89
2019-05-18T20:51:25.126Z,99355.09
2019-05-18T20:53:54.711Z,99360.59
2019-05-18T20:56:24.363Z,99360.54
2019-05-18T20:58:53.969Z,99355.31
2019-05-18T21:01:23.711Z,99365.23
2019-05-18T21:03:53.321Z,99364.92
2019-05-18T21:06:22.960Z,99361.59
2019-05-18T21:08:52.573Z,99365.77
2019-05-18T21:11:22.189Z,99370.16
2019-05-18T21:13:51.785Z,99372.81
2019-05-18T21:16:21.394Z,99372.27
2019-05-18T21:18:50.999Z,99371.94
2019-05-18T21:21:25.410Z,99370.00
2019-05-18T21:23:51.950Z,99363.70
2019-05-18T21:26:21.618Z,99364.83
2019-05-18T21:28:59.157Z,99368.02
2019-05-18T21:31:22.604Z,99368.67
2019-05-18T21:33:52.224Z,99366.60
2019-05-18T21:36:21.847Z,99364.50
2019-05-18T21:38:51.465Z,99363.47
2019-05-18T21:41:21.058Z,99363.39
2019-05-18T21:43:50.688Z,99358.61
2019-05-18T21:46:20.281Z,99363.09
2019-05-18T21:48:49.904Z,99356.73
2019-05-18T21:51:19.541Z,99357.05
2019-05-18T21:53:49.157Z,99355.30
2019-05-18T21:56:18.774Z,99358.82
2019-05-18T21:58:48.383Z,99361.59
2019-05-18T22:01:18.180Z,99357.22
2019-05-18T22:03:48.363Z,99354.92
2019-05-18T22:06:18.337Z,99356.20
2019-05-18T22:08:48.004Z,99345.99
2019-05-18T22:11:17.631Z,99341.69
2019-05-18T22:13:47.251Z,99342.56
2019-05-18T22:16:16.853Z,99344.87
2019-05-18T22:18:46.576Z,99349.58
2019-05-18T22:21:16.196Z,99351.34
2019-05-18T22:23:46.163Z,99346.06
2019-05-18T22:26:15.768Z,99349.73
2019-05-18T22:28:45.435Z,99344.95
2019-05-18T22:31:15.005Z,99347.43
2019-05-18T22:33:44.604Z,99339.38
2019-05-18T22:36:14.220Z,99335.46
2019-05-18T22:38:43.813Z,99328.36
2019-05-18T22:41:13.669Z,99327.73
2019-05-18T22:43:43.295Z,99332.20
2019-05-18T22:46:12.952Z,99334.52
2019-05-18T22:48:42.534Z,99331.40
2019-05-18T22:51:12.232Z,99336.02
2019-05-18T22:53:41.822Z,99332.32
2019-05-18T22:56:11.429Z,99333.53
2019-05-18T22:58:41.068Z,99329.92
2019-05-18T23:01:10.685Z,99326.72
2019-05-18T23:03:40.300Z,99327.84
2019-05-18T23:06:09.921Z,99325.22
2019-05-18T23:08:39.530Z,99330.15
2019-05-18T23:11:09.144Z,99327.84
2019-05-18T23:13:38.758Z,99323.77
2019-05-18T23:16:08.365Z,99332.13
2019-05-18T23:18:38.001Z,99327.98
2019-05-18T23:21:07.620Z,99326.08
2019-05-18T23:23:37.225Z,99330.15
2019-05-18T23:26:06.997Z,99328.80
2019-05-18T23:28:36.595Z,99326.08
2019-05-18T23:31:06.208Z,99324.95
2019-05-18T23:33:35.809Z,99326.31
2019-05-18T23:36:05.442Z,99323.37
2019-05-18T23:38:35.046Z,99321.79
2019-05-18T23:41:04.675Z,99318.27
2019-05-18T23:43:34.299Z,99323.69
2019-05-18T23:46:03.909Z,99315.87
2019-05-18T23:48:33.565Z,99318.59
2019-05-18T23:51:03.141Z,99316.77
2019-05-18T23:53:32.778Z,99311.67
2019-05-18T23:56:02.570Z,99304.09
2019-05-18T23:58:32.160Z,99300.66
